Aviation Digital Data Service (ADDS)

Output produced by METARs form (0300 UTC 21 August 2017)
found at http://aviationweather.gov/adds/metars/
 
KSNS 210253Z AUTO 31009KT 9SM OVC012 18/15 A2990 RMK AO2 SLP132 T01780150 53007
KMRY 210254Z 05006KT 10SM CLR 18/14 A2990 RMK AO2 SLP135 T01780144 53010
KSJC 210253Z 31011KT 10SM FEW016 FEW100 SCT160 21/16 A2988 RMK AO2 SLP118 T02110156 53012 $
KRHV 210147Z 31008KT 10SM SKC 24/16 A2987
KSFO 210256Z 28008KT 10SM FEW025 FEW120 18/13 A2989 RMK AO2 SLP120 T01780133 53007 $
KLVK 210253Z 29013KT 10SM CLR 20/14 A2985 RMK AO2 SLP107 T02000139 53008
KMCE 210253Z AUTO 33007KT 8SM CLR 28/14 A2978 RMK AO2 SLP083 T02830144 53004